createdAt,value
2018-06-29T00:05:52.778Z,61.20
2018-06-29T00:08:57.223Z,62.10
2018-06-29T00:12:01.186Z,60.30
2018-06-29T00:15:05.663Z,61.00
2018-06-29T00:18:09.567Z,60.10
2018-06-29T00:21:13.904Z,60.50
2018-06-29T00:24:18.127Z,60.80
2018-06-29T00:27:22.400Z,60.50
2018-06-29T00:30:26.808Z,60.70
2018-06-29T00:33:31.278Z,60.80
2018-06-29T00:36:35.678Z,61.40
2018-06-29T00:39:39.791Z,60.80
2018-06-29T00:42:44.011Z,60.50
2018-06-29T00:45:48.363Z,60.30
2018-06-29T00:48:52.673Z,60.30
2018-06-29T00:51:57.029Z,60.10
2018-06-29T00:55:01.323Z,59.90
2018-06-29T00:58:05.787Z,59.70
2018-06-29T01:01:10.011Z,60.00
2018-06-29T01:04:14.294Z,59.90
2018-06-29T01:07:18.741Z,59.70
2018-06-29T01:10:23.089Z,59.90
2018-06-29T01:13:27.394Z,59.90
2018-06-29T01:16:31.542Z,59.30
2018-06-29T01:19:35.727Z,59.60
2018-06-29T01:22:39.972Z,59.70
2018-06-29T01:25:44.036Z,60.10
2018-06-29T01:28:48.277Z,59.40
2018-06-29T01:31:52.478Z,59.40
2018-06-29T01:34:56.593Z,59.30
2018-06-29T01:38:00.765Z,59.30
2018-06-29T01:41:04.971Z,59.40
2018-06-29T01:44:09.412Z,59.20
2018-06-29T01:47:13.672Z,59.20
2018-06-29T01:50:18.729Z,59.00
2018-06-29T01:53:23.135Z,59.10
2018-06-29T01:56:27.492Z,59.30
2018-06-29T01:59:31.797Z,59.20
2018-06-29T02:02:36.222Z,59.40
2018-06-29T02:05:40.639Z,59.50
2018-06-29T02:08:45.033Z,59.50
2018-06-29T02:11:49.376Z,59.60
2018-06-29T02:14:53.717Z,59.40
2018-06-29T02:17:58.020Z,59.50
2018-06-29T02:21:02.455Z,59.50
2018-06-29T02:24:06.903Z,59.50
2018-06-29T02:27:11.310Z,59.50
2018-06-29T02:30:15.651Z,59.40
2018-06-29T02:33:19.970Z,59.30
2018-06-29T02:36:24.331Z,59.20
2018-06-29T02:39:28.702Z,59.20
2018-06-29T02:42:33.015Z,59.20
2018-06-29T02:45:37.348Z,59.40
2018-06-29T02:48:41.671Z,59.20
2018-06-29T02:51:45.971Z,59.00
2018-06-29T02:54:50.418Z,59.30
2018-06-29T02:57:54.755Z,59.30
2018-06-29T03:00:59.153Z,59.50
2018-06-29T03:04:03.630Z,59.60
2018-06-29T03:07:07.941Z,60.70
2018-06-29T03:10:12.455Z,60.20
2018-06-29T03:13:16.747Z,60.40
2018-06-29T03:16:21.098Z,60.30
2018-06-29T03:19:25.439Z,60.40
2018-06-29T03:22:29.768Z,60.50
2018-06-29T03:25:34.327Z,60.60
2018-06-29T03:28:38.766Z,60.60
2018-06-29T03:31:42.909Z,60.40
2018-06-29T03:34:47.062Z,60.40
2018-06-29T03:37:51.334Z,60.00
2018-06-29T03:40:55.647Z,59.90
2018-06-29T03:43:59.874Z,59.70
2018-06-29T03:47:04.167Z,59.60
2018-06-29T03:50:08.554Z,59.30
2018-06-29T03:53:12.979Z,59.20
2018-06-29T03:56:17.291Z,59.00
2018-06-29T03:59:21.611Z,58.90
2018-06-29T04:02:25.915Z,58.80
2018-06-29T04:05:30.353Z,58.80
2018-06-29T04:08:34.632Z,58.80
2018-06-29T04:11:39.062Z,58.70
2018-06-29T04:14:43.465Z,58.40
2018-06-29T04:17:47.613Z,58.50
2018-06-29T04:20:52.042Z,58.40
2018-06-29T04:23:56.318Z,58.70
2018-06-29T04:27:00.753Z,58.90
2018-06-29T04:30:05.311Z,58.50
2018-06-29T04:33:09.720Z,58.40
2018-06-29T04:36:14.213Z,58.30
2018-06-29T04:39:18.553Z,58.10
2018-06-29T04:42:22.970Z,57.80
2018-06-29T04:45:27.477Z,57.80
2018-06-29T04:48:31.828Z,57.80
2018-06-29T04:51:35.900Z,57.80
2018-06-29T04:54:40.129Z,57.80
2018-06-29T04:57:44.383Z,58.00
2018-06-29T05:00:48.447Z,58.20
2018-06-29T05:03:52.790Z,58.00
2018-06-29T05:06:57.319Z,58.00
2018-06-29T05:10:01.537Z,57.90
2018-06-29T05:13:06.090Z,57.70
2018-06-29T05:16:10.366Z,57.80
2018-06-29T05:19:14.776Z,57.60
2018-06-29T05:25:23.846Z,58.50
2018-06-29T05:28:28.335Z,58.80
2018-06-29T05:31:32.667Z,59.50
2018-06-29T05:34:36.916Z,59.30
2018-06-29T05:37:41.354Z,59.40
2018-06-29T05:40:45.509Z,59.50
2018-06-29T05:43:49.949Z,59.70
2018-06-29T05:46:54.186Z,59.00
2018-06-29T05:49:58.585Z,58.50
2018-06-29T05:53:02.966Z,58.60
2018-06-29T05:56:07.496Z,58.20
2018-06-29T05:59:11.593Z,58.40
2018-06-29T06:02:15.854Z,58.60
2018-06-29T06:05:20.255Z,57.80
2018-06-29T06:08:24.481Z,57.70
2018-06-29T06:11:28.931Z,57.20
2018-06-29T06:14:33.437Z,57.30
2018-06-29T06:17:37.767Z,56.90
2018-06-29T06:20:42.102Z,57.20
2018-06-29T06:23:46.251Z,56.80
2018-06-29T06:26:50.643Z,56.60
2018-06-29T06:29:55.067Z,56.60
2018-06-29T06:32:59.353Z,56.60
2018-06-29T06:36:04.477Z,56.30
2018-06-29T06:39:10.856Z,56.40
2018-06-29T06:42:14.977Z,56.30
2018-06-29T06:45:19.158Z,56.00
2018-06-29T06:48:23.652Z,55.90
2018-06-29T06:51:27.859Z,55.50
2018-06-29T06:54:32.276Z,55.40
2018-06-29T06:57:37.027Z,54.90
2018-06-29T07:00:41.333Z,54.60
2018-06-29T07:03:45.507Z,54.30
2018-06-29T07:06:49.806Z,53.90
2018-06-29T07:09:54.580Z,53.30
2018-06-29T07:13:00.175Z,52.80
2018-06-29T07:16:04.494Z,52.20
2018-06-29T07:19:08.950Z,50.60
2018-06-29T07:22:13.328Z,47.60
2018-06-29T07:25:17.757Z,44.40
2018-06-29T07:28:22.087Z,41.20
2018-06-29T07:31:26.439Z,39.20
2018-06-29T07:34:30.940Z,37.00
2018-06-29T07:37:35.129Z,36.00
2018-06-29T07:40:39.485Z,36.70
2018-06-29T07:43:43.787Z,37.40
2018-06-29T07:46:48.189Z,38.10
2018-06-29T07:49:52.463Z,38.50
2018-06-29T07:52:56.813Z,39.30
2018-06-29T07:56:01.037Z,40.40
2018-06-29T07:59:05.518Z,40.30
2018-06-29T08:02:09.833Z,41.00
2018-06-29T08:05:14.127Z,41.80
2018-06-29T08:08:18.458Z,42.70
2018-06-29T08:11:22.774Z,43.30
2018-06-29T08:14:27.095Z,44.00
2018-06-29T08:17:31.294Z,45.70
2018-06-29T08:20:35.836Z,46.50
2018-06-29T08:23:40.278Z,46.60
2018-06-29T08:26:44.628Z,46.60
2018-06-29T08:29:48.936Z,46.40
2018-06-29T08:32:53.201Z,46.20
2018-06-29T08:39:01.107Z,45.10
2018-06-29T08:42:05.186Z,44.70
2018-06-29T08:45:10.011Z,44.60
2018-06-29T08:48:14.484Z,44.10
2018-06-29T08:51:18.782Z,43.70
2018-06-29T08:54:23.135Z,43.10
2018-06-29T08:57:27.428Z,42.90
2018-06-29T09:00:31.741Z,42.70
2018-06-29T09:03:36.068Z,42.70
2018-06-29T09:06:40.251Z,41.20
2018-06-29T09:09:44.568Z,40.90
2018-06-29T09:12:48.723Z,40.20
2018-06-29T09:15:53.279Z,41.00
2018-06-29T09:18:57.661Z,40.20
2018-06-29T09:22:01.790Z,40.50
2018-06-29T09:25:06.270Z,40.70
2018-06-29T09:28:10.768Z,40.70
2018-06-29T09:31:15.064Z,40.10
2018-06-29T09:34:19.317Z,39.80
2018-06-29T09:37:23.601Z,39.70
2018-06-29T09:40:27.975Z,40.30
2018-06-29T09:43:32.379Z,40.10
2018-06-29T09:46:36.529Z,39.50
2018-06-29T09:49:40.920Z,39.50
2018-06-29T09:52:45.538Z,39.70
2018-06-29T09:55:50.118Z,40.60
2018-06-29T09:58:54.966Z,40.40
2018-06-29T10:01:59.330Z,41.30
2018-06-29T10:05:03.657Z,42.00
2018-06-29T10:08:08.021Z,42.30
2018-06-29T10:11:12.568Z,40.90
2018-06-29T10:14:17.132Z,41.30
2018-06-29T10:17:21.461Z,42.10
2018-06-29T10:20:25.755Z,42.10
2018-06-29T10:23:30.238Z,42.40
2018-06-29T10:26:34.502Z,42.70
2018-06-29T10:29:38.822Z,42.50
2018-06-29T10:32:43.123Z,43.10
2018-06-29T10:35:47.357Z,43.30
2018-06-29T10:38:51.701Z,43.10
2018-06-29T10:41:56.061Z,42.30
2018-06-29T10:45:00.473Z,41.60
2018-06-29T10:48:05.015Z,41.70
2018-06-29T10:51:09.242Z,41.70
2018-06-29T10:54:13.639Z,42.10
2018-06-29T10:57:17.985Z,42.90
2018-06-29T11:00:22.338Z,43.40
2018-06-29T11:03:26.613Z,44.20
2018-06-29T11:06:30.990Z,44.30
2018-06-29T11:09:35.523Z,44.10
2018-06-29T11:12:40.013Z,44.50
2018-06-29T11:15:44.512Z,44.60
2018-06-29T11:18:48.821Z,44.90
2018-06-29T11:21:53.108Z,45.20
2018-06-29T11:24:57.520Z,45.50
2018-06-29T11:28:01.883Z,45.70
2018-06-29T11:31:06.287Z,45.40
2018-06-29T11:34:10.537Z,45.70
2018-06-29T11:37:14.878Z,45.60
2018-06-29T11:40:19.141Z,45.70
2018-06-29T11:43:23.460Z,46.30
2018-06-29T11:46:27.928Z,46.30
2018-06-29T11:49:32.218Z,46.80
2018-06-29T11:52:36.448Z,47.00
2018-06-29T11:55:40.807Z,47.50
2018-06-29T11:58:45.268Z,48.10
2018-06-29T12:01:49.775Z,48.10
2018-06-29T12:04:54.318Z,48.10
2018-06-29T12:07:58.643Z,48.40
2018-06-29T12:11:02.926Z,48.40
2018-06-29T12:14:07.310Z,48.30
2018-06-29T12:17:11.547Z,48.50
2018-06-29T12:20:16.011Z,48.20
2018-06-29T12:23:20.651Z,47.60
2018-06-29T12:26:24.972Z,47.30
2018-06-29T12:29:29.311Z,46.10
2018-06-29T12:32:33.685Z,45.90
2018-06-29T12:35:37.906Z,46.10
2018-06-29T12:38:42.222Z,46.20
2018-06-29T12:41:46.594Z,45.30
2018-06-29T12:44:50.890Z,45.10
2018-06-29T12:47:55.245Z,44.60
2018-06-29T12:50:59.802Z,44.40
2018-06-29T12:54:04.051Z,43.30
2018-06-29T12:57:08.484Z,43.00
2018-06-29T13:00:12.840Z,42.40
2018-06-29T13:03:17.152Z,42.70
2018-06-29T13:06:22.269Z,42.30
2018-06-29T13:09:26.570Z,42.80
2018-06-29T13:12:30.927Z,43.20
2018-06-29T13:15:36.270Z,43.30
2018-06-29T13:18:40.591Z,43.60
2018-06-29T13:21:44.888Z,43.60
2018-06-29T13:24:49.170Z,44.00
2018-06-29T13:27:53.336Z,44.30
2018-06-29T13:30:57.972Z,44.20
2018-06-29T13:34:02.385Z,43.70
2018-06-29T13:37:06.705Z,44.70
2018-06-29T13:40:10.888Z,44.20
2018-06-29T13:43:15.346Z,44.40
2018-06-29T13:46:19.579Z,44.50
2018-06-29T13:49:23.882Z,45.00
2018-06-29T13:52:28.310Z,45.20
2018-06-29T13:55:32.912Z,45.20
2018-06-29T13:58:37.829Z,45.50
2018-06-29T14:01:42.399Z,46.10
2018-06-29T14:04:46.623Z,45.60
2018-06-29T14:07:50.963Z,45.80
2018-06-29T14:10:55.343Z,45.60
2018-06-29T14:13:59.831Z,45.60
2018-06-29T14:17:04.110Z,45.70
2018-06-29T14:20:08.411Z,45.30
2018-06-29T14:23:12.691Z,45.40
2018-06-29T14:26:17.159Z,45.90
2018-06-29T14:29:21.569Z,46.00
2018-06-29T14:32:26.037Z,46.00
2018-06-29T14:35:30.415Z,46.00
2018-06-29T14:38:34.999Z,45.90
2018-06-29T14:41:39.296Z,46.10
2018-06-29T14:44:43.664Z,46.60
2018-06-29T14:47:47.900Z,46.70
2018-06-29T14:50:52.395Z,46.10
2018-06-29T14:53:56.744Z,46.20
2018-06-29T14:57:01.220Z,46.40
2018-06-29T15:00:07.162Z,46.20
2018-06-29T15:03:11.658Z,46.70
2018-06-29T15:06:15.965Z,46.00
2018-06-29T15:09:20.305Z,46.10
2018-06-29T15:12:24.580Z,46.30
2018-06-29T15:15:28.962Z,45.90
2018-06-29T15:18:33.484Z,45.90
2018-06-29T15:21:38.110Z,45.90
2018-06-29T15:24:42.760Z,45.70
2018-06-29T15:27:47.154Z,45.80
2018-06-29T15:33:55.336Z,45.20
2018-06-29T15:36:59.776Z,45.20
2018-06-29T15:40:04.198Z,44.80
2018-06-29T15:43:11.125Z,45.00
2018-06-29T15:46:15.530Z,44.80
2018-06-29T15:49:20.509Z,44.90
2018-06-29T15:52:25.126Z,45.00
2018-06-29T15:55:30.052Z,45.30
2018-06-29T15:58:34.234Z,44.80
2018-06-29T16:01:38.962Z,45.70
2018-06-29T16:04:43.266Z,45.60
2018-06-29T16:07:47.710Z,45.80
2018-06-29T16:10:52.278Z,45.70
2018-06-29T16:13:56.626Z,46.00
2018-06-29T16:17:01.051Z,46.20
2018-06-29T16:20:05.510Z,46.30
2018-06-29T16:23:09.801Z,46.70
2018-06-29T16:26:14.086Z,46.80
2018-06-29T16:29:18.855Z,46.50
2018-06-29T16:32:23.178Z,46.40
2018-06-29T16:35:27.613Z,46.20
2018-06-29T16:38:32.021Z,46.30
2018-06-29T16:41:36.449Z,46.50
2018-06-29T16:44:40.755Z,46.70
2018-06-29T16:47:45.091Z,46.90
2018-06-29T16:50:49.415Z,47.20
2018-06-29T16:53:53.593Z,47.50
2018-06-29T16:56:57.796Z,47.70
2018-06-29T17:00:02.203Z,48.10
2018-06-29T17:03:06.979Z,48.20
2018-06-29T17:06:11.275Z,48.20
2018-06-29T17:09:15.621Z,48.30
2018-06-29T17:12:19.839Z,48.50
2018-06-29T17:15:24.198Z,48.70
2018-06-29T17:18:28.488Z,48.50
2018-06-29T17:21:32.688Z,48.80
2018-06-29T17:24:36.881Z,48.70
2018-06-29T17:27:41.393Z,48.90
2018-06-29T17:30:45.871Z,48.80
2018-06-29T17:33:50.235Z,49.20
2018-06-29T17:36:54.717Z,49.20
2018-06-29T17:39:58.980Z,49.20
2018-06-29T17:43:03.294Z,49.50
2018-06-29T17:46:07.697Z,49.80
2018-06-29T17:49:11.799Z,49.90
2018-06-29T17:52:16.247Z,50.00
2018-06-29T17:55:20.649Z,49.70
2018-06-29T17:58:24.944Z,49.70
2018-06-29T18:01:29.361Z,49.80
2018-06-29T18:04:33.816Z,49.90
2018-06-29T18:07:38.173Z,50.00
2018-06-29T18:10:42.493Z,50.00
2018-06-29T18:13:46.958Z,50.20
2018-06-29T18:16:51.535Z,50.20
2018-06-29T18:19:56.049Z,50.30
2018-06-29T18:23:00.268Z,50.50
2018-06-29T18:26:04.570Z,50.70
2018-06-29T18:29:08.938Z,51.00
2018-06-29T18:32:13.688Z,51.20
2018-06-29T18:35:17.933Z,51.20
2018-06-29T18:38:22.216Z,51.30
2018-06-29T18:41:26.724Z,51.70
2018-06-29T18:44:31.361Z,51.70
2018-06-29T18:47:35.625Z,51.70
2018-06-29T18:50:40.054Z,51.70
2018-06-29T18:53:44.192Z,52.00
2018-06-29T18:56:48.330Z,52.10
2018-06-29T18:59:52.534Z,52.30
2018-06-29T19:02:56.872Z,52.20
2018-06-29T19:06:01.297Z,52.40
2018-06-29T19:09:08.153Z,52.50
2018-06-29T19:12:12.611Z,52.50
2018-06-29T19:18:20.839Z,52.50
2018-06-29T19:21:25.143Z,52.60
2018-06-29T19:24:29.475Z,52.60
2018-06-29T19:27:33.835Z,52.70
2018-06-29T19:30:38.276Z,52.70
2018-06-29T19:36:46.584Z,52.70
2018-06-29T19:39:51.069Z,53.10
2018-06-29T19:42:55.442Z,52.90
2018-06-29T19:45:59.802Z,53.10
2018-06-29T19:49:04.286Z,53.20
2018-06-29T19:52:08.590Z,53.30
2018-06-29T19:55:13.010Z,53.50
2018-06-29T19:58:17.298Z,53.50
2018-06-29T20:01:21.753Z,53.60
2018-06-29T20:04:26.947Z,53.70
2018-06-29T20:07:31.405Z,53.80
2018-06-29T20:10:35.768Z,53.70
2018-06-29T20:13:40.219Z,53.80
2018-06-29T20:16:46.594Z,53.80
2018-06-29T20:19:50.960Z,53.80
2018-06-29T20:22:55.277Z,53.90
2018-06-29T20:25:59.509Z,53.90
2018-06-29T20:29:03.809Z,53.90
2018-06-29T20:32:08.350Z,54.00
2018-06-29T20:35:12.817Z,54.10
2018-06-29T20:38:17.281Z,54.10
2018-06-29T20:41:21.630Z,54.20
2018-06-29T20:44:26.040Z,54.30
2018-06-29T20:47:30.649Z,54.50
2018-06-29T20:50:34.992Z,54.50
2018-06-29T20:53:39.350Z,54.60
2018-06-29T20:56:43.656Z,54.60
2018-06-29T20:59:48.559Z,54.70
2018-06-29T21:02:52.962Z,54.80
2018-06-29T21:05:57.437Z,54.80
2018-06-29T21:09:01.720Z,55.00
2018-06-29T21:12:06.132Z,55.10
2018-06-29T21:15:10.544Z,55.20
2018-06-29T21:18:14.912Z,55.50
2018-06-29T21:21:19.112Z,55.50
2018-06-29T21:24:23.358Z,55.60
2018-06-29T21:27:27.594Z,55.70
2018-06-29T21:30:31.922Z,55.70
2018-06-29T21:33:36.166Z,55.80
2018-06-29T21:36:40.691Z,55.80
2018-06-29T21:39:45.062Z,55.90
2018-06-29T21:42:49.486Z,55.80
2018-06-29T21:45:53.855Z,55.80
2018-06-29T21:48:59.049Z,55.60
2018-06-29T21:52:03.619Z,55.60
2018-06-29T21:55:08.275Z,55.40
2018-06-29T21:58:12.691Z,55.40
2018-06-29T22:01:17.083Z,55.40
2018-06-29T22:04:21.486Z,55.40
2018-06-29T22:07:25.740Z,55.20
2018-06-29T22:10:30.044Z,55.10
2018-06-29T22:13:34.365Z,55.10
2018-06-29T22:16:38.675Z,54.90
2018-06-29T22:19:44.588Z,55.00
2018-06-29T22:22:48.955Z,55.10
2018-06-29T22:25:53.359Z,55.20
2018-06-29T22:28:57.856Z,55.20
2018-06-29T22:32:02.172Z,55.10
2018-06-29T22:35:06.697Z,55.10
2018-06-29T22:38:10.826Z,55.10
2018-06-29T22:41:15.110Z,55.10
2018-06-29T22:44:19.366Z,55.10
2018-06-29T22:47:24.055Z,55.10
2018-06-29T22:50:28.543Z,55.10
2018-06-29T22:53:32.702Z,55.10
2018-06-29T22:56:37.559Z,55.30
2018-06-29T22:59:41.796Z,55.50
2018-06-29T23:02:46.031Z,55.70
2018-06-29T23:05:50.056Z,56.30
2018-06-29T23:08:54.436Z,55.70
2018-06-29T23:11:58.604Z,55.80
2018-06-29T23:15:03.203Z,55.90
2018-06-29T23:18:07.594Z,55.90
2018-06-29T23:21:11.938Z,55.90
2018-06-29T23:24:16.299Z,56.30
2018-06-29T23:27:20.870Z,56.40
2018-06-29T23:30:25.302Z,56.30
2018-06-29T23:33:29.507Z,56.40
2018-06-29T23:36:33.838Z,56.40
2018-06-29T23:39:38.149Z,56.60
2018-06-29T23:42:42.643Z,56.60
2018-06-29T23:45:47.175Z,56.90
2018-06-29T23:48:51.645Z,57.00
2018-06-29T23:51:56.012Z,57.20
2018-06-29T23:55:00.581Z,57.30
2018-06-29T23:58:05.516Z,57.70
